createdAt,value
2017-07-27T00:00:28.969Z,14.18
2017-07-27T00:01:43.116Z,14.25
2017-07-27T00:02:44.973Z,14.25
2017-07-27T00:03:46.852Z,14.32
2017-07-27T00:04:48.710Z,14.42
2017-07-27T00:05:50.525Z,14.37
2017-07-27T00:06:52.317Z,14.46
2017-07-27T00:07:54.180Z,14.45
2017-07-27T00:08:56.053Z,14.47
2017-07-27T00:09:57.909Z,14.50
2017-07-27T00:11:12.038Z,14.40
2017-07-27T00:12:13.891Z,14.42
2017-07-27T00:13:15.754Z,14.37
2017-07-27T00:14:17.629Z,14.43
2017-07-27T00:15:19.422Z,14.40
2017-07-27T00:16:21.216Z,14.54
2017-07-27T00:17:23.071Z,14.58
2017-07-27T00:18:24.926Z,14.47
2017-07-27T00:19:26.806Z,14.58
2017-07-27T00:20:40.928Z,14.52
2017-07-27T00:21:42.784Z,14.58
2017-07-27T00:22:44.644Z,14.60
2017-07-27T00:23:46.525Z,14.57
2017-07-27T00:24:48.337Z,14.68
2017-07-27T00:25:50.135Z,14.72
2017-07-27T00:26:51.984Z,14.78
2017-07-27T00:27:53.842Z,14.60
2017-07-27T00:28:55.701Z,14.68
2017-07-27T00:30:09.895Z,14.78
2017-07-27T00:31:11.753Z,14.70
2017-07-27T00:32:13.636Z,14.78
2017-07-27T00:33:15.516Z,14.78
2017-07-27T00:34:17.307Z,14.72
2017-07-27T00:35:19.101Z,14.69
2017-07-27T00:36:20.963Z,14.64
2017-07-27T00:37:22.843Z,14.64
2017-07-27T00:38:24.696Z,14.73
2017-07-27T00:39:38.820Z,14.77
2017-07-27T00:40:40.677Z,14.72
2017-07-27T00:41:42.558Z,14.73
2017-07-27T00:42:44.445Z,14.83
2017-07-27T00:43:46.259Z,14.84
2017-07-27T00:44:48.070Z,14.83
2017-07-27T00:45:49.929Z,14.80
2017-07-27T00:46:51.781Z,14.84
2017-07-27T00:47:53.638Z,14.84
2017-07-27T00:49:07.760Z,14.83
2017-07-27T00:50:09.622Z,14.86
2017-07-27T00:51:11.473Z,14.81
2017-07-27T00:52:13.329Z,14.69
2017-07-27T00:53:15.146Z,14.64
2017-07-27T00:54:16.935Z,14.55
2017-07-27T00:55:18.795Z,14.60
2017-07-27T00:56:20.672Z,14.58
2017-07-27T00:57:22.529Z,14.54
2017-07-27T00:58:36.674Z,14.55
2017-07-27T00:59:38.541Z,14.47
2017-07-27T01:00:40.410Z,14.47
2017-07-27T01:01:42.306Z,14.51
2017-07-27T01:02:44.106Z,14.58
2017-07-27T01:03:45.912Z,14.65
2017-07-27T01:04:47.783Z,14.72
2017-07-27T01:05:49.676Z,14.73
2017-07-27T01:06:51.550Z,14.75
2017-07-27T01:08:05.716Z,14.88
2017-07-27T01:09:07.607Z,14.94
2017-07-27T01:10:09.475Z,14.98
2017-07-27T01:11:11.343Z,14.99
2017-07-27T01:12:13.144Z,15.11
2017-07-27T01:13:14.954Z,15.13
2017-07-27T01:14:16.846Z,15.13
2017-07-27T01:15:18.712Z,15.09
2017-07-27T01:16:20.577Z,14.99
2017-07-27T01:17:34.721Z,15.09
2017-07-27T01:18:36.611Z,15.17
2017-07-27T01:19:38.502Z,15.09
2017-07-27T01:20:40.363Z,15.20
2017-07-27T01:21:42.175Z,15.14
2017-07-27T01:22:43.995Z,15.07
2017-07-27T01:23:45.868Z,15.16
2017-07-27T01:24:47.756Z,15.14
2017-07-27T01:25:49.646Z,15.14
2017-07-27T01:27:03.807Z,15.14
2017-07-27T01:28:05.675Z,15.07
2017-07-27T01:29:07.547Z,15.14
2017-07-27T01:30:09.433Z,15.06
2017-07-27T01:31:11.240Z,15.20
2017-07-27T01:32:13.048Z,15.31
2017-07-27T01:33:14.936Z,15.25
2017-07-27T01:34:16.810Z,15.21
2017-07-27T01:35:18.677Z,15.20
2017-07-27T01:36:32.816Z,15.31
2017-07-27T01:37:34.685Z,15.36
2017-07-27T01:38:36.551Z,15.39
2017-07-27T01:39:38.421Z,15.38
2017-07-27T01:40:40.223Z,15.47
2017-07-27T01:41:42.029Z,15.41
2017-07-27T01:42:43.900Z,15.53
2017-07-27T01:43:45.790Z,15.56
2017-07-27T01:44:47.678Z,15.47
2017-07-27T01:46:01.823Z,15.64
2017-07-27T01:47:03.718Z,15.65
2017-07-27T01:48:05.583Z,15.62
2017-07-27T01:49:07.452Z,15.74
2017-07-27T01:50:09.265Z,15.68
2017-07-27T01:51:11.082Z,15.65
2017-07-27T01:52:12.956Z,15.74
2017-07-27T01:53:14.848Z,15.74
2017-07-27T01:54:16.714Z,15.71
2017-07-27T01:55:30.855Z,15.74
2017-07-27T01:56:32.744Z,15.65
2017-07-27T01:57:34.612Z,15.71
2017-07-27T01:58:36.488Z,15.71
2017-07-27T01:59:38.316Z,15.64
2017-07-27T02:00:40.141Z,15.69
2017-07-27T02:01:42.032Z,15.65
2017-07-27T02:02:43.898Z,15.65
2017-07-27T02:03:45.769Z,15.62
2017-07-27T02:04:59.956Z,15.57
2017-07-27T02:06:01.826Z,15.57
2017-07-27T02:07:03.720Z,15.62
2017-07-27T02:08:05.610Z,15.62
2017-07-27T02:09:07.414Z,15.57
2017-07-27T02:10:09.220Z,15.60
2017-07-27T02:11:11.107Z,15.68
2017-07-27T02:12:12.980Z,15.67
2017-07-27T02:13:14.871Z,15.69
2017-07-27T02:14:29.007Z,15.54
2017-07-27T02:15:30.875Z,15.69
2017-07-27T02:16:32.748Z,15.65
2017-07-27T02:17:34.642Z,15.65
2017-07-27T02:18:36.468Z,15.74
2017-07-27T02:19:38.273Z,15.69
2017-07-27T02:20:40.162Z,15.69
2017-07-27T02:21:42.030Z,15.72
2017-07-27T02:22:43.919Z,15.65
2017-07-27T02:23:58.066Z,15.76
2017-07-27T02:24:59.953Z,15.65
2017-07-27T02:26:01.828Z,15.74
2017-07-27T02:27:03.697Z,15.71
2017-07-27T02:28:05.526Z,15.74
2017-07-27T02:29:07.330Z,15.74
2017-07-27T02:30:09.219Z,15.71
2017-07-27T02:31:11.101Z,15.76
2017-07-27T02:32:12.969Z,15.82
2017-07-27T02:33:27.111Z,15.82
2017-07-27T02:34:28.980Z,15.89
2017-07-27T02:35:30.852Z,15.97
2017-07-27T02:36:32.744Z,15.93
2017-07-27T02:37:34.548Z,16.01
2017-07-27T02:38:36.352Z,16.01
2017-07-27T02:39:38.249Z,15.94
2017-07-27T02:40:40.140Z,16.01
2017-07-27T02:41:42.031Z,15.94
2017-07-27T02:42:56.197Z,16.02
2017-07-27T02:43:58.086Z,15.97
2017-07-27T02:44:59.958Z,16.00
2017-07-27T02:46:01.831Z,15.96
2017-07-27T02:47:03.656Z,16.01
2017-07-27T02:48:05.460Z,15.93
2017-07-27T02:49:07.348Z,15.94
2017-07-27T02:50:09.217Z,16.00
2017-07-27T02:51:11.087Z,15.94
2017-07-27T02:52:25.248Z,16.07
2017-07-27T02:53:27.137Z,16.08
2017-07-27T02:54:29.005Z,16.15
2017-07-27T02:55:30.882Z,16.07
2017-07-27T02:56:32.706Z,16.14
2017-07-27T02:57:34.508Z,16.14
2017-07-27T02:58:36.379Z,16.15
2017-07-27T02:59:38.248Z,16.14
2017-07-27T03:00:40.119Z,16.20
2017-07-27T03:01:54.286Z,16.05
2017-07-27T03:02:56.174Z,16.05
2017-07-27T03:03:58.044Z,16.09
2017-07-27T03:04:59.917Z,16.05
2017-07-27T03:06:01.749Z,16.12
2017-07-27T03:07:03.572Z,16.12
2017-07-27T03:08:05.438Z,16.11
2017-07-27T03:09:07.302Z,16.05
2017-07-27T03:10:09.172Z,16.08
2017-07-27T03:11:23.314Z,16.23
2017-07-27T03:12:25.200Z,16.08
2017-07-27T03:13:27.079Z,16.11
2017-07-27T03:14:28.971Z,15.96
2017-07-27T03:15:30.776Z,16.05
2017-07-27T03:16:32.578Z,16.04
2017-07-27T03:17:34.477Z,16.05
2017-07-27T03:18:36.369Z,16.04
2017-07-27T03:19:38.260Z,16.12
2017-07-27T03:20:52.403Z,16.21
2017-07-27T03:21:54.279Z,16.12
2017-07-27T03:22:56.171Z,16.05
2017-07-27T03:23:58.044Z,16.08
2017-07-27T03:24:59.867Z,16.04
2017-07-27T03:26:01.678Z,16.05
2017-07-27T03:27:03.569Z,16.02
2017-07-27T03:28:05.439Z,16.05
2017-07-27T03:29:07.333Z,16.14
2017-07-27T03:30:21.498Z,16.08
2017-07-27T03:31:23.393Z,16.07
2017-07-27T03:32:25.282Z,16.08
2017-07-27T03:33:27.156Z,16.07
2017-07-27T03:34:28.982Z,16.05
2017-07-27T03:35:30.792Z,16.05
2017-07-27T03:36:32.683Z,16.09
2017-07-27T03:37:34.551Z,16.07
2017-07-27T03:38:36.422Z,16.04
2017-07-27T03:39:50.585Z,16.05
2017-07-27T03:40:52.480Z,16.04
2017-07-27T03:41:54.355Z,16.04
2017-07-27T03:42:56.225Z,16.01
2017-07-27T03:43:58.035Z,16.04
2017-07-27T03:44:59.861Z,16.00
2017-07-27T03:46:01.736Z,16.02
2017-07-27T03:47:03.631Z,16.09
2017-07-27T03:48:05.517Z,16.21
2017-07-27T03:49:19.673Z,16.14
2017-07-27T03:50:21.567Z,16.14
2017-07-27T03:51:23.462Z,16.20
2017-07-27T03:52:25.357Z,16.15
2017-07-27T03:53:27.164Z,16.20
2017-07-27T03:54:28.970Z,16.21
2017-07-27T03:55:30.865Z,16.31
2017-07-27T03:56:32.757Z,16.34
2017-07-27T03:57:34.652Z,16.28
2017-07-27T03:58:48.821Z,16.23
2017-07-27T03:59:50.714Z,16.24
2017-07-27T04:00:52.609Z,16.27
2017-07-27T04:01:54.474Z,16.21
2017-07-27T04:02:56.289Z,16.21
2017-07-27T04:03:58.117Z,16.24
2017-07-27T04:05:00.007Z,16.21
2017-07-27T04:06:01.876Z,16.12
2017-07-27T04:07:03.706Z,16.17
2017-07-27T04:08:17.919Z,16.20
2017-07-27T04:09:19.787Z,16.12
2017-07-27T04:10:21.686Z,15.97
2017-07-27T04:11:23.572Z,16.11
2017-07-27T04:12:25.384Z,16.12
2017-07-27T04:13:27.213Z,16.11
2017-07-27T04:14:29.111Z,16.17
2017-07-27T04:15:31.003Z,16.12
2017-07-27T04:16:32.878Z,16.12
2017-07-27T04:17:47.043Z,16.11
2017-07-27T04:18:48.914Z,16.11
2017-07-27T04:19:50.815Z,16.15
2017-07-27T04:20:52.692Z,16.12
2017-07-27T04:21:54.518Z,16.24
2017-07-27T04:22:56.348Z,16.17
2017-07-27T04:23:58.236Z,16.21
2017-07-27T04:25:00.110Z,16.23
2017-07-27T04:26:01.984Z,16.17
2017-07-27T04:27:16.126Z,16.21
2017-07-27T04:28:18.001Z,16.27
2017-07-27T04:29:19.871Z,16.17
2017-07-27T04:30:21.743Z,16.23
2017-07-27T04:31:23.575Z,16.20
2017-07-27T04:32:25.408Z,16.25
2017-07-27T04:33:27.307Z,16.23
2017-07-27T04:34:29.199Z,16.24
2017-07-27T04:35:31.071Z,16.27
2017-07-27T04:36:45.240Z,16.31
2017-07-27T04:37:47.134Z,16.35
2017-07-27T04:38:49.006Z,16.30
2017-07-27T04:39:50.900Z,16.39
2017-07-27T04:40:52.710Z,16.33
2017-07-27T04:41:54.517Z,16.38
2017-07-27T04:42:56.413Z,16.35
2017-07-27T04:43:58.310Z,16.35
2017-07-27T04:45:00.203Z,16.35
2017-07-27T04:46:14.346Z,16.34
2017-07-27T04:47:16.218Z,16.35
2017-07-27T04:48:18.094Z,16.42
2017-07-27T04:49:19.992Z,16.50
2017-07-27T04:50:21.819Z,16.41
2017-07-27T04:51:23.632Z,16.49
2017-07-27T04:52:25.525Z,16.50
2017-07-27T04:53:27.422Z,16.42
2017-07-27T04:54:29.294Z,16.57
2017-07-27T04:55:43.444Z,16.53
2017-07-27T04:56:45.340Z,16.60
2017-07-27T04:57:47.216Z,16.64
2017-07-27T04:58:49.110Z,16.63
2017-07-27T04:59:50.921Z,16.66
2017-07-27T05:00:52.729Z,16.66
2017-07-27T05:01:54.627Z,16.73
2017-07-27T05:02:56.501Z,16.83
2017-07-27T05:03:58.403Z,16.85
2017-07-27T05:05:12.570Z,16.73
2017-07-27T05:06:14.441Z,16.64
2017-07-27T05:07:16.342Z,16.64
2017-07-27T05:08:18.239Z,16.67
2017-07-27T05:09:20.073Z,16.73
2017-07-27T05:10:21.905Z,16.68
2017-07-27T05:11:23.800Z,16.78
2017-07-27T05:12:25.699Z,16.64
2017-07-27T05:13:27.596Z,16.60
2017-07-27T05:14:41.766Z,16.67
2017-07-27T05:15:43.638Z,16.58
2017-07-27T05:16:45.536Z,16.71
2017-07-27T05:17:47.406Z,16.67
2017-07-27T05:18:49.219Z,16.73
2017-07-27T05:19:51.050Z,16.79
2017-07-27T05:20:52.948Z,16.85
2017-07-27T05:21:54.839Z,16.78
2017-07-27T05:22:56.711Z,16.82
2017-07-27T05:24:10.967Z,16.82
2017-07-27T05:25:12.864Z,16.81
2017-07-27T05:26:14.738Z,16.79
2017-07-27T05:27:16.774Z,16.89
2017-07-27T05:28:18.630Z,16.91
2017-07-27T05:29:20.457Z,16.94
2017-07-27T05:30:22.343Z,16.89
2017-07-27T05:31:24.241Z,16.91
2017-07-27T05:32:26.139Z,16.94
2017-07-27T05:33:40.304Z,17.00
2017-07-27T05:34:42.182Z,16.85
2017-07-27T05:35:44.057Z,16.89
2017-07-27T05:36:45.950Z,16.83
2017-07-27T05:37:47.756Z,16.88
2017-07-27T05:38:49.572Z,16.94
2017-07-27T05:39:51.464Z,16.85
2017-07-27T05:40:53.338Z,16.86
2017-07-27T05:41:55.237Z,16.85
2017-07-27T05:43:09.406Z,16.88
2017-07-27T05:44:11.275Z,16.85
2017-07-27T05:45:13.175Z,16.93
2017-07-27T05:46:15.050Z,16.86
2017-07-27T05:47:16.862Z,16.94
2017-07-27T05:48:18.694Z,17.06
2017-07-27T05:49:20.565Z,17.01
2017-07-27T05:50:22.436Z,17.04
2017-07-27T05:51:24.312Z,17.03
2017-07-27T05:52:38.485Z,17.06
2017-07-27T05:53:40.357Z,17.07
2017-07-27T05:54:42.230Z,17.07
2017-07-27T05:55:44.128Z,17.18
2017-07-27T05:56:45.960Z,17.11
2017-07-27T05:57:47.799Z,17.14
2017-07-27T05:58:49.682Z,17.18
2017-07-27T05:59:51.564Z,17.19
2017-07-27T06:00:53.454Z,17.21
2017-07-27T06:02:07.600Z,17.22
2017-07-27T06:03:09.476Z,17.22
2017-07-27T06:04:11.377Z,17.30
2017-07-27T06:05:13.277Z,17.31
2017-07-27T06:06:15.112Z,17.33
2017-07-27T06:07:16.955Z,17.30
2017-07-27T06:08:18.847Z,17.34
2017-07-27T06:09:20.743Z,17.40
2017-07-27T06:10:22.638Z,17.31
2017-07-27T06:11:36.792Z,17.48
2017-07-27T06:12:38.688Z,17.54
2017-07-27T06:13:40.571Z,17.49
2017-07-27T06:14:42.474Z,17.49
2017-07-27T06:15:44.306Z,17.48
2017-07-27T06:16:46.142Z,17.43
2017-07-27T06:17:48.034Z,17.54
2017-07-27T06:18:49.915Z,17.68
2017-07-27T06:19:51.816Z,17.68
2017-07-27T06:21:05.986Z,17.84
2017-07-27T06:22:07.883Z,17.97
2017-07-27T06:23:09.759Z,17.96
2017-07-27T06:24:11.636Z,17.84
2017-07-27T06:25:13.471Z,17.86
2017-07-27T06:26:15.282Z,17.92
2017-07-27T06:27:17.162Z,17.79
2017-07-27T06:28:19.055Z,17.72
2017-07-27T06:29:20.933Z,17.70
2017-07-27T06:30:35.084Z,17.64
2017-07-27T06:31:36.978Z,17.71
2017-07-27T06:32:38.860Z,17.71
2017-07-27T06:33:40.757Z,17.62
2017-07-27T06:34:42.569Z,17.66
2017-07-27T06:35:44.378Z,17.59
2017-07-27T06:36:46.257Z,17.71
2017-07-27T06:37:48.151Z,17.78
2017-07-27T06:38:50.046Z,17.78
2017-07-27T06:40:04.190Z,17.93
2017-07-27T06:41:06.066Z,18.05
2017-07-27T06:42:07.967Z,17.90
2017-07-27T06:43:09.862Z,17.95
2017-07-27T06:44:11.677Z,17.93
2017-07-27T06:45:13.509Z,17.87
2017-07-27T06:46:15.384Z,17.95
2017-07-27T06:47:17.249Z,17.79
2017-07-27T06:48:19.152Z,17.79
2017-07-27T06:49:33.305Z,17.79
2017-07-27T06:50:35.201Z,17.81
2017-07-27T06:51:37.081Z,17.84
2017-07-27T06:52:38.980Z,17.92
2017-07-27T06:53:40.821Z,17.92
2017-07-27T06:54:42.675Z,17.95
2017-07-27T06:55:44.551Z,17.95
2017-07-27T06:56:46.448Z,17.97
2017-07-27T06:57:48.344Z,18.05
2017-07-27T06:59:02.492Z,18.14
2017-07-27T07:00:04.363Z,18.18
2017-07-27T07:01:06.236Z,18.33
2017-07-27T07:02:08.113Z,18.44
2017-07-27T07:03:09.926Z,18.54
2017-07-27T07:04:11.786Z,18.67
2017-07-27T07:05:13.690Z,18.72
2017-07-27T07:06:15.567Z,18.76
2017-07-27T07:07:17.468Z,18.90
2017-07-27T07:08:31.636Z,18.95
2017-07-27T07:09:33.515Z,18.94
2017-07-27T07:10:35.391Z,19.00
2017-07-27T07:11:37.298Z,18.98
2017-07-27T07:12:39.120Z,18.98
2017-07-27T07:13:40.933Z,18.98
2017-07-27T07:14:42.810Z,18.92
2017-07-27T07:15:44.714Z,19.10
2017-07-27T07:16:46.591Z,19.16
2017-07-27T07:18:00.789Z,19.21
2017-07-27T07:19:02.691Z,19.33
2017-07-27T07:20:04.595Z,19.39
2017-07-27T07:21:06.476Z,19.58
2017-07-27T07:22:08.314Z,19.63
2017-07-27T07:23:10.128Z,19.77
2017-07-27T07:24:12.026Z,19.84
2017-07-27T07:25:13.930Z,19.95
2017-07-27T07:26:15.826Z,20.03
2017-07-27T07:27:29.984Z,20.11
2017-07-27T07:28:31.853Z,20.23
2017-07-27T07:29:33.734Z,20.26
2017-07-27T07:30:35.630Z,20.33
2017-07-27T07:31:37.448Z,20.32
2017-07-27T07:32:39.258Z,20.36
2017-07-27T07:33:41.137Z,20.39
2017-07-27T07:34:43.013Z,20.36
2017-07-27T07:35:44.914Z,20.35
2017-07-27T07:36:59.094Z,20.39
2017-07-27T07:38:00.967Z,20.42
2017-07-27T07:39:02.848Z,20.43
2017-07-27T07:40:04.747Z,20.48
2017-07-27T07:41:06.558Z,20.51
2017-07-27T07:42:08.387Z,20.51
2017-07-27T07:43:10.291Z,20.48
2017-07-27T07:44:12.166Z,20.61
2017-07-27T07:45:14.063Z,20.70
2017-07-27T07:46:28.213Z,20.88
2017-07-27T07:47:30.092Z,20.85
2017-07-27T07:48:31.983Z,20.88
2017-07-27T07:49:33.886Z,20.88
2017-07-27T07:50:35.719Z,20.76
2017-07-27T07:51:37.535Z,20.91
2017-07-27T07:52:39.487Z,20.91
2017-07-27T07:53:41.363Z,20.89
2017-07-27T07:54:43.254Z,20.89
2017-07-27T07:55:57.395Z,20.99
2017-07-27T07:56:59.289Z,21.03
2017-07-27T07:58:01.181Z,21.14
2017-07-27T07:59:03.110Z,21.13
2017-07-27T08:00:04.922Z,21.21
2017-07-27T08:01:06.742Z,21.14
2017-07-27T08:02:08.647Z,21.16
2017-07-27T08:03:10.546Z,21.32
2017-07-27T08:04:12.450Z,21.32
2017-07-27T08:05:26.626Z,21.29
2017-07-27T08:06:28.525Z,21.29
2017-07-27T08:07:30.409Z,21.46
2017-07-27T08:08:32.291Z,21.47
2017-07-27T08:09:34.130Z,21.72
2017-07-27T08:10:35.946Z,21.74
2017-07-27T08:11:37.827Z,21.75
2017-07-27T08:12:39.756Z,21.74
2017-07-27T08:13:41.660Z,21.80
2017-07-27T08:14:55.807Z,21.96
2017-07-27T08:15:57.709Z,22.05
2017-07-27T08:16:59.587Z,21.98
2017-07-27T08:18:01.475Z,22.03
2017-07-27T08:19:03.288Z,22.14
2017-07-27T08:20:05.131Z,21.86
2017-07-27T08:21:07.024Z,21.94
2017-07-27T08:22:08.926Z,21.90
2017-07-27T08:23:10.829Z,21.90
2017-07-27T08:24:25.005Z,22.10
2017-07-27T08:25:26.920Z,22.06
2017-07-27T08:26:28.803Z,22.02
2017-07-27T08:27:30.701Z,22.22
2017-07-27T08:28:32.538Z,22.49
2017-07-27T08:29:34.353Z,22.62
2017-07-27T08:30:36.259Z,22.77
2017-07-27T08:31:38.159Z,22.75
2017-07-27T08:32:40.046Z,22.67
2017-07-27T08:33:54.220Z,22.40
2017-07-27T08:34:56.121Z,22.33
2017-07-27T08:35:58.001Z,22.40
2017-07-27T08:36:59.912Z,22.15
2017-07-27T08:38:01.764Z,21.96
2017-07-27T08:39:03.578Z,21.87
2017-07-27T08:40:05.462Z,21.87
2017-07-27T08:41:07.362Z,21.92
2017-07-27T08:42:09.268Z,21.86
2017-07-27T08:43:23.419Z,21.75
2017-07-27T08:44:25.332Z,21.94
2017-07-27T08:45:27.216Z,21.94
2017-07-27T08:46:29.115Z,21.92
2017-07-27T08:47:30.937Z,21.75
2017-07-27T08:48:32.772Z,21.69
2017-07-27T08:49:34.672Z,21.74
2017-07-27T08:50:36.547Z,21.71
2017-07-27T08:51:38.430Z,21.74
2017-07-27T08:52:52.636Z,21.82
2017-07-27T08:53:54.668Z,21.75
2017-07-27T08:54:56.640Z,21.87
2017-07-27T08:55:58.643Z,22.06
2017-07-27T08:57:00.473Z,22.28
2017-07-27T08:58:02.293Z,22.46
2017-07-27T08:59:04.195Z,22.62
2017-07-27T09:00:06.096Z,22.88
2017-07-27T09:01:07.999Z,23.09
2017-07-27T09:02:22.168Z,23.15
2017-07-27T09:03:24.051Z,23.31
2017-07-27T09:04:26.010Z,23.23
2017-07-27T09:05:27.891Z,23.22
2017-07-27T09:06:29.705Z,23.28
2017-07-27T09:07:31.540Z,23.17
2017-07-27T09:08:33.420Z,23.17
2017-07-27T09:09:35.299Z,23.17
2017-07-27T09:10:37.199Z,23.20
2017-07-27T09:11:51.366Z,23.07
2017-07-27T09:12:53.272Z,22.85
2017-07-27T09:13:55.170Z,22.67
2017-07-27T09:14:57.056Z,22.52
2017-07-27T09:15:58.863Z,22.35
2017-07-27T09:17:00.681Z,22.40
2017-07-27T09:18:02.585Z,22.36
2017-07-27T09:19:04.462Z,22.47
2017-07-27T09:20:06.367Z,22.46
2017-07-27T09:21:20.543Z,22.77
2017-07-27T09:22:22.445Z,23.04
2017-07-27T09:23:24.328Z,23.12
2017-07-27T09:24:26.229Z,23.55
2017-07-27T09:25:28.066Z,23.68
2017-07-27T09:26:29.884Z,23.85
2017-07-27T09:27:31.787Z,24.03
2017-07-27T09:28:33.688Z,24.16
2017-07-27T09:29:35.590Z,24.22
2017-07-27T09:30:49.742Z,24.35
2017-07-27T09:31:51.642Z,24.31
2017-07-27T09:32:53.524Z,24.31
2017-07-27T09:33:55.407Z,24.09
2017-07-27T09:34:57.254Z,24.09
2017-07-27T09:35:59.090Z,23.98
2017-07-27T09:37:00.966Z,23.97
2017-07-27T09:38:02.867Z,23.79
2017-07-27T09:39:04.750Z,23.73
2017-07-27T09:40:18.906Z,23.76
2017-07-27T09:41:20.782Z,23.72
2017-07-27T09:42:22.665Z,23.58
2017-07-27T09:43:24.592Z,23.57
2017-07-27T09:44:26.416Z,23.61
2017-07-27T09:45:28.256Z,23.79
2017-07-27T09:46:30.159Z,23.94
2017-07-27T09:47:32.061Z,23.94
2017-07-27T09:48:34.037Z,24.02
2017-07-27T09:49:48.370Z,24.18
2017-07-27T09:50:50.388Z,24.35
2017-07-27T09:51:52.270Z,24.46
2017-07-27T09:52:54.167Z,24.55
2017-07-27T09:53:55.983Z,24.80
2017-07-27T09:54:57.801Z,24.88
2017-07-27T09:55:59.700Z,24.90
2017-07-27T09:57:01.577Z,24.96
2017-07-27T09:58:03.459Z,25.00
2017-07-27T09:59:17.612Z,25.05
2017-07-27T10:00:19.511Z,25.02
2017-07-27T10:01:21.392Z,25.02
2017-07-27T10:02:23.273Z,24.93
2017-07-27T10:03:25.112Z,24.87
2017-07-27T10:04:26.944Z,24.85
2017-07-27T10:05:28.832Z,24.83
2017-07-27T10:06:30.731Z,24.80
2017-07-27T10:07:32.613Z,24.93
2017-07-27T10:08:46.788Z,25.09
2017-07-27T10:09:48.690Z,25.08
2017-07-27T10:10:50.568Z,24.77
2017-07-27T10:11:52.445Z,24.57
2017-07-27T10:12:54.696Z,24.15
2017-07-27T10:13:56.598Z,23.90
2017-07-27T10:14:58.498Z,23.63
2017-07-27T10:16:00.400Z,23.65
2017-07-27T10:17:02.301Z,23.63
2017-07-27T10:18:16.452Z,23.78
2017-07-27T10:19:18.324Z,23.90
2017-07-27T10:20:20.203Z,24.06
2017-07-27T10:21:22.097Z,24.24
2017-07-27T10:22:23.915Z,24.34
2017-07-27T10:23:25.749Z,24.57
2017-07-27T10:24:27.626Z,24.58
2017-07-27T10:25:29.520Z,24.69
2017-07-27T10:26:31.402Z,24.67
2017-07-27T10:27:45.580Z,24.61
2017-07-27T10:28:47.482Z,24.64
2017-07-27T10:29:49.384Z,24.67
2017-07-27T10:30:51.260Z,24.81
2017-07-27T10:31:53.073Z,24.98
2017-07-27T10:32:54.902Z,25.00
2017-07-27T10:33:56.791Z,25.06
2017-07-27T10:34:58.673Z,25.05
2017-07-27T10:36:00.575Z,25.06
2017-07-27T10:37:14.721Z,25.14
2017-07-27T10:38:16.602Z,25.20
2017-07-27T10:39:18.503Z,25.43
2017-07-27T10:40:20.382Z,25.54
2017-07-27T10:41:22.239Z,25.38
2017-07-27T10:42:24.075Z,25.42
2017-07-27T10:43:25.950Z,25.55
2017-07-27T10:44:27.851Z,25.62
2017-07-27T10:45:29.752Z,25.60
2017-07-27T10:46:43.989Z,25.65
2017-07-27T10:47:45.897Z,25.69
2017-07-27T10:48:47.797Z,25.51
2017-07-27T10:49:49.678Z,25.30
2017-07-27T10:50:51.493Z,25.08
2017-07-27T10:51:53.331Z,24.96
2017-07-27T10:52:55.228Z,24.99
2017-07-27T10:53:57.445Z,25.10
2017-07-27T10:54:59.289Z,25.21
2017-07-27T10:56:13.444Z,25.58
2017-07-27T10:57:15.349Z,25.62
2017-07-27T10:58:17.248Z,25.75
2017-07-27T10:59:19.151Z,25.83
2017-07-27T11:00:20.970Z,25.90
2017-07-27T11:01:22.780Z,25.97
2017-07-27T11:02:24.668Z,25.85
2017-07-27T11:03:26.569Z,25.97
2017-07-27T11:04:28.472Z,26.01
2017-07-27T11:05:42.631Z,25.82
2017-07-27T11:06:44.527Z,25.83
2017-07-27T11:07:46.433Z,25.65
2017-07-27T11:08:48.336Z,25.55
2017-07-27T11:09:50.175Z,25.32
2017-07-27T11:10:52.021Z,25.03
2017-07-27T11:11:53.912Z,25.14
2017-07-27T11:12:55.785Z,25.27
2017-07-27T11:13:57.658Z,25.43
2017-07-27T11:15:11.817Z,25.17
2017-07-27T11:16:13.713Z,25.00
2017-07-27T11:17:15.590Z,24.96
2017-07-27T11:18:17.495Z,24.80
2017-07-27T11:19:19.335Z,24.77
2017-07-27T11:20:21.154Z,24.69
2017-07-27T11:21:23.036Z,24.78
2017-07-27T11:22:24.903Z,24.87
2017-07-27T11:23:26.804Z,25.00
2017-07-27T11:24:40.954Z,25.15
2017-07-27T11:25:42.830Z,25.28
2017-07-27T11:26:44.701Z,25.33
2017-07-27T11:27:46.613Z,25.62
2017-07-27T11:28:48.429Z,25.58
2017-07-27T11:29:50.242Z,25.64
2017-07-27T11:30:52.151Z,25.83
2017-07-27T11:31:54.183Z,26.02
2017-07-27T11:32:56.064Z,25.95
2017-07-27T11:34:10.224Z,26.06
2017-07-27T11:35:12.100Z,26.21
2017-07-27T11:36:14.030Z,26.26
2017-07-27T11:37:15.913Z,26.33
2017-07-27T11:38:17.740Z,26.55
2017-07-27T11:39:19.568Z,26.55
2017-07-27T11:40:21.470Z,26.48
2017-07-27T11:41:23.344Z,26.54
2017-07-27T11:42:25.219Z,26.45
2017-07-27T11:43:39.373Z,26.33
2017-07-27T11:44:41.281Z,26.25
2017-07-27T11:45:43.185Z,26.28
2017-07-27T11:46:45.085Z,26.23
2017-07-27T11:47:46.903Z,26.30
2017-07-27T11:48:48.718Z,26.32
2017-07-27T11:49:50.595Z,26.09
2017-07-27T11:50:52.498Z,25.75
2017-07-27T11:51:54.395Z,25.64
2017-07-27T11:53:08.557Z,25.54
2017-07-27T11:54:10.468Z,25.45
2017-07-27T11:55:12.338Z,25.54
2017-07-27T11:56:14.206Z,25.79
2017-07-27T11:57:16.027Z,25.91
2017-07-27T11:58:17.862Z,26.06
2017-07-27T11:59:19.774Z,26.37
2017-07-27T12:00:21.670Z,26.43
2017-07-27T12:01:23.573Z,26.40
2017-07-27T12:02:37.749Z,26.28
2017-07-27T12:03:39.629Z,26.37
2017-07-27T12:04:41.533Z,26.45
2017-07-27T12:05:43.431Z,26.48
2017-07-27T12:06:45.244Z,26.48
2017-07-27T12:07:47.061Z,26.67
2017-07-27T12:08:48.968Z,26.60
2017-07-27T12:09:50.825Z,26.63
2017-07-27T12:10:52.704Z,26.73
2017-07-27T12:12:06.855Z,26.84
2017-07-27T12:13:08.733Z,26.69
2017-07-27T12:14:10.604Z,26.75
2017-07-27T12:15:12.478Z,26.82
2017-07-27T12:16:14.298Z,26.91
2017-07-27T12:17:16.113Z,26.85
2017-07-27T12:18:17.995Z,26.89
2017-07-27T12:19:19.890Z,26.99
2017-07-27T12:20:21.775Z,27.06
2017-07-27T12:21:35.973Z,27.00
2017-07-27T12:22:37.845Z,26.94
2017-07-27T12:23:39.728Z,26.84
2017-07-27T12:24:41.632Z,26.70
2017-07-27T12:25:43.442Z,26.60
2017-07-27T12:26:45.256Z,26.50
2017-07-27T12:27:47.137Z,26.43
2017-07-27T12:28:49.146Z,26.48
2017-07-27T12:29:51.351Z,26.67
2017-07-27T12:31:05.706Z,26.87
2017-07-27T12:32:07.716Z,26.97
2017-07-27T12:33:09.767Z,27.17
2017-07-27T12:34:11.796Z,27.24
2017-07-27T12:35:14.465Z,27.60
2017-07-27T12:36:16.444Z,27.72
2017-07-27T12:37:18.509Z,27.74
2017-07-27T12:38:20.469Z,27.84
2017-07-27T12:39:22.511Z,28.00
2017-07-27T12:40:36.955Z,28.24
2017-07-27T12:41:39.044Z,28.27
2017-07-27T12:42:41.118Z,28.27
2017-07-27T12:43:43.158Z,28.19
2017-07-27T12:44:45.211Z,28.15
2017-07-27T12:45:47.310Z,28.00
2017-07-27T12:46:49.357Z,27.99
2017-07-27T12:47:51.583Z,27.75
2017-07-27T12:48:53.528Z,27.49
2017-07-27T12:50:08.063Z,27.06
2017-07-27T12:51:10.945Z,27.07
2017-07-27T12:52:12.914Z,27.13
2017-07-27T12:53:15.086Z,27.17
2017-07-27T12:54:17.116Z,27.13
2017-07-27T12:55:19.168Z,27.22
2017-07-27T12:56:21.276Z,27.40
2017-07-27T12:57:23.230Z,27.46
2017-07-27T12:58:25.232Z,27.54
2017-07-27T12:59:39.614Z,27.36
2017-07-27T13:00:41.648Z,26.91
2017-07-27T13:01:43.686Z,26.81
2017-07-27T13:02:45.693Z,26.82
2017-07-27T13:03:47.642Z,26.73
2017-07-27T13:04:49.468Z,26.73
2017-07-27T13:05:51.412Z,26.70
2017-07-27T13:06:53.315Z,26.67
2017-07-27T13:07:55.277Z,26.94
2017-07-27T13:09:09.506Z,26.99
2017-07-27T13:10:11.371Z,27.06
2017-07-27T13:11:13.320Z,26.95
2017-07-27T13:12:15.205Z,26.91
2017-07-27T13:13:17.033Z,26.85
2017-07-27T13:14:18.873Z,26.69
2017-07-27T13:15:20.756Z,26.57
2017-07-27T13:16:22.652Z,26.39
2017-07-27T13:17:24.556Z,26.30
2017-07-27T13:18:38.739Z,26.05
2017-07-27T13:19:40.656Z,25.97
2017-07-27T13:20:42.600Z,25.97
2017-07-27T13:21:44.538Z,26.05
2017-07-27T13:22:46.414Z,26.05
2017-07-27T13:23:48.280Z,26.18
2017-07-27T13:24:50.223Z,26.20
2017-07-27T13:25:52.105Z,26.28
2017-07-27T13:26:54.006Z,26.33
2017-07-27T13:28:08.305Z,26.36
2017-07-27T13:29:10.233Z,26.30
2017-07-27T13:30:12.143Z,26.29
2017-07-27T13:31:14.093Z,26.15
2017-07-27T13:32:15.961Z,26.07
2017-07-27T13:33:17.817Z,26.06
2017-07-27T13:34:19.757Z,25.90